Russell, Massachusetts
Current Conditions -  °F | °C
As of 5:53 PM on Saturday 22 Nov 2014 (Local Time) from KBAF Reporting Station
Overcast Overcast  
Wind Chill: 31°   Ceiling: 10000
Heat Index: 40°   Visibility: 10mi
Dew Point: 11°   Wind: 16mph
Humidity: 31%   Direction: 200°SSW
Pressure: 30.13"   Gusts: NA
Location:  42.19°N, 72.86°W
Report Text: KBAF 222253Z 20014KT 10SM OVC100 04/M12 A3013 RMK AO2 SLP210 T00441117
Loading
Personal Weather Stations






























Interactive Weather Map New forecast layout! Learn more

10-Day Weather Forecast

Advertisements
Track Severe Weather on mobile